sensor_id;sensor_type;location;lat;lon;timestamp;temperature;humidity
13694;DHT22;6919;52.344;14.518;2023-08-07T00:02:27;13.80;99.90
13694;DHT22;6919;52.344;14.518;2023-08-07T00:04:56;13.90;99.90
13694;DHT22;6919;52.344;14.518;2023-08-07T00:07:24;13.90;99.90
13694;DHT22;6919;52.344;14.518;2023-08-07T00:09:53;13.90;99.90
13694;DHT22;6919;52.344;14.518;2023-08-07T00:12:21;13.80;99.90
13694;DHT22;6919;52.344;14.518;2023-08-07T00:14:50;13.80;99.90
13694;DHT22;6919;52.344;14.518;2023-08-07T00:17:20;13.90;99.90
13694;DHT22;6919;52.344;14.518;2023-08-07T00:19:48;14.00;99.90
13694;DHT22;6919;52.344;14.518;2023-08-07T00:22:16;13.90;99.90
13694;DHT22;6919;52.344;14.518;2023-08-07T00:24:44;13.90;99.90
13694;DHT22;6919;52.344;14.518;2023-08-07T00:27:13;13.80;99.90
13694;DHT22;6919;52.344;14.518;2023-08-07T00:29:42;13.80;99.90
13694;DHT22;6919;52.344;14.518;2023-08-07T00:32:10;13.80;99.90
13694;DHT22;6919;52.344;14.518;2023-08-07T00:34:40;13.80;99.90
13694;DHT22;6919;52.344;14.518;2023-08-07T00:37:08;13.90;99.90
13694;DHT22;6919;52.344;14.518;2023-08-07T00:39:37;13.90;99.90
13694;DHT22;6919;52.344;14.518;2023-08-07T00:42:06;13.80;99.90
13694;DHT22;6919;52.344;14.518;2023-08-07T00:44:35;13.80;99.90
13694;DHT22;6919;52.344;14.518;2023-08-07T00:47:03;13.70;99.90
13694;DHT22;6919;52.344;14.518;2023-08-07T00:49:32;13.70;99.90
13694;DHT22;6919;52.344;14.518;2023-08-07T00:52:03;13.70;99.90
13694;DHT22;6919;52.344;14.518;2023-08-07T00:54:32;13.70;99.90
13694;DHT22;6919;52.344;14.518;2023-08-07T00:57:10;13.60;99.90
13694;DHT22;6919;52.344;14.518;2023-08-07T00:59:39;13.70;99.90
13694;DHT22;6919;52.344;14.518;2023-08-07T01:02:09;13.70;99.90
13694;DHT22;6919;52.344;14.518;2023-08-07T01:04:40;13.70;99.90
13694;DHT22;6919;52.344;14.518;2023-08-07T01:07:10;13.60;99.90
13694;DHT22;6919;52.344;14.518;2023-08-07T01:09:38;13.70;99.90
13694;DHT22;6919;52.344;14.518;2023-08-07T01:12:13;13.70;99.90
13694;DHT22;6919;52.344;14.518;2023-08-07T01:14:51;13.60;99.90
13694;DHT22;6919;52.344;14.518;2023-08-07T01:17:23;13.60;99.90
13694;DHT22;6919;52.344;14.518;2023-08-07T01:19:52;13.60;99.90
13694;DHT22;6919;52.344;14.518;2023-08-07T01:22:21;13.60;99.90
13694;DHT22;6919;52.344;14.518;2023-08-07T01:24:51;13.60;99.90
13694;DHT22;6919;52.344;14.518;2023-08-07T01:27:34;13.60;99.90
13694;DHT22;6919;52.344;14.518;2023-08-07T01:30:11;13.60;99.90
13694;DHT22;6919;52.344;14.518;2023-08-07T01:32:53;13.60;99.90
13694;DHT22;6919;52.344;14.518;2023-08-07T01:35:30;13.60;99.90
13694;DHT22;6919;52.344;14.518;2023-08-07T01:38:05;13.60;99.90
13694;DHT22;6919;52.344;14.518;2023-08-07T01:40:36;13.60;99.90
13694;DHT22;6919;52.344;14.518;2023-08-07T01:43:06;13.50;99.90
13694;DHT22;6919;52.344;14.518;2023-08-07T01:45:35;13.60;99.90
13694;DHT22;6919;52.344;14.518;2023-08-07T01:48:04;13.60;99.90
13694;DHT22;6919;52.344;14.518;2023-08-07T01:50:32;13.50;99.90
13694;DHT22;6919;52.344;14.518;2023-08-07T01:53:01;13.60;99.90
13694;DHT22;6919;52.344;14.518;2023-08-07T01:55:30;13.60;99.90
13694;DHT22;6919;52.344;14.518;2023-08-07T01:57:59;13.60;99.90
13694;DHT22;6919;52.344;14.518;2023-08-07T02:00:27;13.60;99.90
13694;DHT22;6919;52.344;14.518;2023-08-07T02:02:56;13.60;99.90
13694;DHT22;6919;52.344;14.518;2023-08-07T02:05:24;13.70;99.90
13694;DHT22;6919;52.344;14.518;2023-08-07T02:07:52;13.70;99.90
13694;DHT22;6919;52.344;14.518;2023-08-07T02:10:23;13.70;99.90
13694;DHT22;6919;52.344;14.518;2023-08-07T02:12:53;13.70;99.90
13694;DHT22;6919;52.344;14.518;2023-08-07T02:15:21;13.70;99.90
13694;DHT22;6919;52.344;14.518;2023-08-07T02:17:49;13.70;99.90
13694;DHT22;6919;52.344;14.518;2023-08-07T02:20:18;13.70;99.90
13694;DHT22;6919;52.344;14.518;2023-08-07T02:22:46;13.80;99.90
13694;DHT22;6919;52.344;14.518;2023-08-07T02:25:15;13.70;99.90
13694;DHT22;6919;52.344;14.518;2023-08-07T02:27:43;13.60;99.90
13694;DHT22;6919;52.344;14.518;2023-08-07T02:30:13;13.70;99.90
13694;DHT22;6919;52.344;14.518;2023-08-07T02:32:41;13.60;99.90
13694;DHT22;6919;52.344;14.518;2023-08-07T02:35:11;13.60;99.90
13694;DHT22;6919;52.344;14.518;2023-08-07T02:37:39;13.60;99.90
13694;DHT22;6919;52.344;14.518;2023-08-07T02:40:09;13.60;99.90
13694;DHT22;6919;52.344;14.518;2023-08-07T02:42:40;13.60;99.90
13694;DHT22;6919;52.344;14.518;2023-08-07T02:45:09;13.60;99.90
13694;DHT22;6919;52.344;14.518;2023-08-07T02:47:38;13.50;99.90
13694;DHT22;6919;52.344;14.518;2023-08-07T02:50:07;13.50;99.90
13694;DHT22;6919;52.344;14.518;2023-08-07T02:52:36;13.60;99.90
13694;DHT22;6919;52.344;14.518;2023-08-07T02:55:05;13.50;99.90
13694;DHT22;6919;52.344;14.518;2023-08-07T02:57:34;13.60;99.90
13694;DHT22;6919;52.344;14.518;2023-08-07T03:00:02;13.60;99.90
13694;DHT22;6919;52.344;14.518;2023-08-07T03:02:31;13.60;99.90
13694;DHT22;6919;52.344;14.518;2023-08-07T03:05:01;13.60;99.90
13694;DHT22;6919;52.344;14.518;2023-08-07T03:07:29;13.60;99.90
13694;DHT22;6919;52.344;14.518;2023-08-07T03:09:57;13.50;99.90
13694;DHT22;6919;52.344;14.518;2023-08-07T03:12:26;13.70;99.90
13694;DHT22;6919;52.344;14.518;2023-08-07T03:14:54;13.70;99.90
13694;DHT22;6919;52.344;14.518;2023-08-07T03:17:22;13.60;99.90
13694;DHT22;6919;52.344;14.518;2023-08-07T03:19:50;13.60;99.90
13694;DHT22;6919;52.344;14.518;2023-08-07T03:22:20;13.60;99.90
13694;DHT22;6919;52.344;14.518;2023-08-07T03:24:48;13.60;99.90
13694;DHT22;6919;52.344;14.518;2023-08-07T03:27:17;13.60;99.90
13694;DHT22;6919;52.344;14.518;2023-08-07T03:29:45;13.70;99.90
13694;DHT22;6919;52.344;14.518;2023-08-07T03:32:13;13.70;99.90
13694;DHT22;6919;52.344;14.518;2023-08-07T03:34:41;13.60;99.90
13694;DHT22;6919;52.344;14.518;2023-08-07T03:37:10;13.70;99.90
13694;DHT22;6919;52.344;14.518;2023-08-07T03:39:40;13.70;99.90
13694;DHT22;6919;52.344;14.518;2023-08-07T03:42:10;13.60;99.90
13694;DHT22;6919;52.344;14.518;2023-08-07T03:44:38;13.60;99.90
13694;DHT22;6919;52.344;14.518;2023-08-07T03:47:07;13.70;99.90
13694;DHT22;6919;52.344;14.518;2023-08-07T03:49:35;13.70;99.90
13694;DHT22;6919;52.344;14.518;2023-08-07T03:52:04;13.70;99.90
13694;DHT22;6919;52.344;14.518;2023-08-07T03:54:33;13.70;99.90
13694;DHT22;6919;52.344;14.518;2023-08-07T03:57:03;13.70;99.90
13694;DHT22;6919;52.344;14.518;2023-08-07T03:59:31;13.70;99.90
13694;DHT22;6919;52.344;14.518;2023-08-07T04:02:00;13.70;99.90
13694;DHT22;6919;52.344;14.518;2023-08-07T04:04:28;13.70;99.90
13694;DHT22;6919;52.344;14.518;2023-08-07T04:06:56;13.60;99.90
13694;DHT22;6919;52.344;14.518;2023-08-07T04:09:25;13.70;99.90
13694;DHT22;6919;52.344;14.518;2023-08-07T04:11:54;13.80;99.90
13694;DHT22;6919;52.344;14.518;2023-08-07T04:14:24;13.80;99.90
13694;DHT22;6919;52.344;14.518;2023-08-07T04:16:53;13.90;99.90
13694;DHT22;6919;52.344;14.518;2023-08-07T04:19:22;13.80;99.90
13694;DHT22;6919;52.344;14.518;2023-08-07T04:21:51;13.80;99.90
13694;DHT22;6919;52.344;14.518;2023-08-07T04:24:19;13.90;99.90
13694;DHT22;6919;52.344;14.518;2023-08-07T04:26:48;13.90;99.90
13694;DHT22;6919;52.344;14.518;2023-08-07T04:29:16;14.00;99.90
13694;DHT22;6919;52.344;14.518;2023-08-07T04:31:46;14.10;99.90
13694;DHT22;6919;52.344;14.518;2023-08-07T04:34:14;14.30;99.90
13694;DHT22;6919;52.344;14.518;2023-08-07T04:36:42;14.30;99.90
13694;DHT22;6919;52.344;14.518;2023-08-07T04:39:10;14.40;99.90
13694;DHT22;6919;52.344;14.518;2023-08-07T04:41:40;14.50;99.90
13694;DHT22;6919;52.344;14.518;2023-08-07T04:44:10;14.50;99.90
13694;DHT22;6919;52.344;14.518;2023-08-07T04:46:38;14.50;99.90
13694;DHT22;6919;52.344;14.518;2023-08-07T04:49:09;14.60;99.90
13694;DHT22;6919;52.344;14.518;2023-08-07T04:51:37;14.50;99.90
13694;DHT22;6919;52.344;14.518;2023-08-07T04:54:05;14.60;99.90
13694;DHT22;6919;52.344;14.518;2023-08-07T04:56:34;14.60;99.90
13694;DHT22;6919;52.344;14.518;2023-08-07T04:59:02;14.70;99.90
13694;DHT22;6919;52.344;14.518;2023-08-07T05:01:30;14.70;99.90
13694;DHT22;6919;52.344;14.518;2023-08-07T05:03:59;14.90;99.90
13694;DHT22;6919;52.344;14.518;2023-08-07T05:06:29;15.00;99.90
13694;DHT22;6919;52.344;14.518;2023-08-07T05:08:58;15.10;99.90
13694;DHT22;6919;52.344;14.518;2023-08-07T05:11:26;15.10;99.90
13694;DHT22;6919;52.344;14.518;2023-08-07T05:13:54;15.10;99.90
13694;DHT22;6919;52.344;14.518;2023-08-07T05:16:23;15.10;99.90
13694;DHT22;6919;52.344;14.518;2023-08-07T05:18:51;15.30;99.90
13694;DHT22;6919;52.344;14.518;2023-08-07T05:21:20;15.30;99.90
13694;DHT22;6919;52.344;14.518;2023-08-07T05:23:49;15.40;99.90
13694;DHT22;6919;52.344;14.518;2023-08-07T05:26:19;15.30;99.90
13694;DHT22;6919;52.344;14.518;2023-08-07T05:28:48;15.30;99.90
13694;DHT22;6919;52.344;14.518;2023-08-07T05:31:16;15.30;99.90
13694;DHT22;6919;52.344;14.518;2023-08-07T05:33:45;15.30;99.90
13694;DHT22;6919;52.344;14.518;2023-08-07T05:36:13;15.30;99.90
13694;DHT22;6919;52.344;14.518;2023-08-07T05:38:41;15.40;99.90
13694;DHT22;6919;52.344;14.518;2023-08-07T05:41:11;15.50;99.90
13694;DHT22;6919;52.344;14.518;2023-08-07T05:43:39;15.40;99.90
13694;DHT22;6919;52.344;14.518;2023-08-07T05:46:08;15.70;99.90
13694;DHT22;6919;52.344;14.518;2023-08-07T05:48:36;15.80;99.90
13694;DHT22;6919;52.344;14.518;2023-08-07T05:51:05;15.90;99.90
13694;DHT22;6919;52.344;14.518;2023-08-07T05:53:34;16.10;99.90
13694;DHT22;6919;52.344;14.518;2023-08-07T05:56:03;16.30;99.90
13694;DHT22;6919;52.344;14.518;2023-08-07T05:58:33;16.50;99.90
13694;DHT22;6919;52.344;14.518;2023-08-07T06:01:01;16.50;99.90
13694;DHT22;6919;52.344;14.518;2023-08-07T06:03:30;16.50;99.90
13694;DHT22;6919;52.344;14.518;2023-08-07T06:05:58;16.50;99.90
13694;DHT22;6919;52.344;14.518;2023-08-07T06:08:27;16.60;99.90
13694;DHT22;6919;52.344;14.518;2023-08-07T06:10:55;16.60;99.90
13694;DHT22;6919;52.344;14.518;2023-08-07T06:13:24;16.70;99.90
13694;DHT22;6919;52.344;14.518;2023-08-07T06:16:04;16.80;99.90
13694;DHT22;6919;52.344;14.518;2023-08-07T06:18:33;16.80;99.90
13694;DHT22;6919;52.344;14.518;2023-08-07T06:21:02;16.90;99.90
13694;DHT22;6919;52.344;14.518;2023-08-07T06:23:33;17.00;99.90
13694;DHT22;6919;52.344;14.518;2023-08-07T06:26:01;16.60;99.90
13694;DHT22;6919;52.344;14.518;2023-08-07T06:28:32;16.60;99.90
13694;DHT22;6919;52.344;14.518;2023-08-07T06:31:03;16.50;99.90
13694;DHT22;6919;52.344;14.518;2023-08-07T06:33:33;16.70;99.90
13694;DHT22;6919;52.344;14.518;2023-08-07T06:36:03;17.10;99.90
13694;DHT22;6919;52.344;14.518;2023-08-07T06:38:32;16.90;99.90
13694;DHT22;6919;52.344;14.518;2023-08-07T06:41:00;16.80;99.90
13694;DHT22;6919;52.344;14.518;2023-08-07T06:43:28;17.00;99.90
13694;DHT22;6919;52.344;14.518;2023-08-07T06:45:57;17.20;99.90
13694;DHT22;6919;52.344;14.518;2023-08-07T06:48:28;17.30;99.90
13694;DHT22;6919;52.344;14.518;2023-08-07T06:50:56;17.40;99.90
13694;DHT22;6919;52.344;14.518;2023-08-07T06:53:27;17.40;99.90
13694;DHT22;6919;52.344;14.518;2023-08-07T06:55:56;17.50;99.90
13694;DHT22;6919;52.344;14.518;2023-08-07T06:58:24;17.30;99.90
13694;DHT22;6919;52.344;14.518;2023-08-07T07:00:52;17.30;99.90
13694;DHT22;6919;52.344;14.518;2023-08-07T07:03:20;17.30;99.90
13694;DHT22;6919;52.344;14.518;2023-08-07T07:05:50;17.20;99.90
13694;DHT22;6919;52.344;14.518;2023-08-07T07:08:18;17.20;99.90
13694;DHT22;6919;52.344;14.518;2023-08-07T07:10:47;17.00;99.90
13694;DHT22;6919;52.344;14.518;2023-08-07T07:13:15;17.10;99.90
13694;DHT22;6919;52.344;14.518;2023-08-07T07:15:44;17.10;99.90
13694;DHT22;6919;52.344;14.518;2023-08-07T07:18:12;16.80;99.90
13694;DHT22;6919;52.344;14.518;2023-08-07T07:20:40;16.90;99.90
13694;DHT22;6919;52.344;14.518;2023-08-07T07:23:10;17.10;99.90
13694;DHT22;6919;52.344;14.518;2023-08-07T07:25:38;17.40;99.90
13694;DHT22;6919;52.344;14.518;2023-08-07T07:28:07;17.50;99.90
13694;DHT22;6919;52.344;14.518;2023-08-07T07:30:35;17.30;99.90
13694;DHT22;6919;52.344;14.518;2023-08-07T07:33:03;17.50;99.90
13694;DHT22;6919;52.344;14.518;2023-08-07T07:35:32;17.50;99.90
13694;DHT22;6919;52.344;14.518;2023-08-07T07:38:06;17.40;99.90
13694;DHT22;6919;52.344;14.518;2023-08-07T07:40:36;17.60;99.90
13694;DHT22;6919;52.344;14.518;2023-08-07T07:43:04;17.80;99.90
13694;DHT22;6919;52.344;14.518;2023-08-07T07:45:33;18.10;99.90
13694;DHT22;6919;52.344;14.518;2023-08-07T07:48:02;17.70;99.90
13694;DHT22;6919;52.344;14.518;2023-08-07T07:50:32;18.00;99.90
13694;DHT22;6919;52.344;14.518;2023-08-07T07:53:01;17.70;99.90
13694;DHT22;6919;52.344;14.518;2023-08-07T07:55:29;17.70;99.90
13694;DHT22;6919;52.344;14.518;2023-08-07T07:57:59;17.80;99.90
13694;DHT22;6919;52.344;14.518;2023-08-07T08:00:27;17.60;99.90
13694;DHT22;6919;52.344;14.518;2023-08-07T08:02:56;17.80;99.90
13694;DHT22;6919;52.344;14.518;2023-08-07T08:05:24;18.10;99.90
13694;DHT22;6919;52.344;14.518;2023-08-07T08:07:52;18.20;99.90
13694;DHT22;6919;52.344;14.518;2023-08-07T08:10:21;18.30;99.90
13694;DHT22;6919;52.344;14.518;2023-08-07T08:12:49;18.30;99.90
13694;DHT22;6919;52.344;14.518;2023-08-07T08:15:19;18.40;99.90
13694;DHT22;6919;52.344;14.518;2023-08-07T08:17:47;18.20;99.90
13694;DHT22;6919;52.344;14.518;2023-08-07T08:20:16;18.20;99.90
13694;DHT22;6919;52.344;14.518;2023-08-07T08:22:46;18.20;99.90
13694;DHT22;6919;52.344;14.518;2023-08-07T08:25:14;18.30;99.90
13694;DHT22;6919;52.344;14.518;2023-08-07T08:27:44;18.50;99.90
13694;DHT22;6919;52.344;14.518;2023-08-07T08:30:13;18.70;99.90
13694;DHT22;6919;52.344;14.518;2023-08-07T08:32:43;18.60;99.90
13694;DHT22;6919;52.344;14.518;2023-08-07T08:35:11;18.60;99.90
13694;DHT22;6919;52.344;14.518;2023-08-07T08:37:40;18.60;99.90
13694;DHT22;6919;52.344;14.518;2023-08-07T08:40:09;18.80;99.90
13694;DHT22;6919;52.344;14.518;2023-08-07T08:42:44;19.00;99.90
13694;DHT22;6919;52.344;14.518;2023-08-07T08:45:14;19.20;99.90
13694;DHT22;6919;52.344;14.518;2023-08-07T08:47:45;18.90;99.90
13694;DHT22;6919;52.344;14.518;2023-08-07T08:50:17;19.10;99.90
13694;DHT22;6919;52.344;14.518;2023-08-07T08:52:45;19.40;99.90
13694;DHT22;6919;52.344;14.518;2023-08-07T08:55:13;19.50;99.90
13694;DHT22;6919;52.344;14.518;2023-08-07T08:57:42;19.80;99.90
13694;DHT22;6919;52.344;14.518;2023-08-07T09:00:12;19.70;99.90
13694;DHT22;6919;52.344;14.518;2023-08-07T09:02:50;19.70;99.90
13694;DHT22;6919;52.344;14.518;2023-08-07T09:05:21;19.80;99.90
13694;DHT22;6919;52.344;14.518;2023-08-07T09:07:50;19.40;99.90
13694;DHT22;6919;52.344;14.518;2023-08-07T09:10:19;19.20;99.90
13694;DHT22;6919;52.344;14.518;2023-08-07T09:12:53;19.70;99.90
13694;DHT22;6919;52.344;14.518;2023-08-07T09:15:29;20.00;99.90
13694;DHT22;6919;52.344;14.518;2023-08-07T09:18:04;20.10;99.90
13694;DHT22;6919;52.344;14.518;2023-08-07T09:20:36;20.00;99.90
13694;DHT22;6919;52.344;14.518;2023-08-07T09:23:06;20.20;99.90
13694;DHT22;6919;52.344;14.518;2023-08-07T09:25:35;20.30;99.90
13694;DHT22;6919;52.344;14.518;2023-08-07T09:28:04;20.30;99.90
13694;DHT22;6919;52.344;14.518;2023-08-07T09:30:34;20.00;99.90
13694;DHT22;6919;52.344;14.518;2023-08-07T09:33:05;19.70;99.90
13694;DHT22;6919;52.344;14.518;2023-08-07T09:35:34;19.30;99.90
13694;DHT22;6919;52.344;14.518;2023-08-07T09:38:02;19.10;99.90
13694;DHT22;6919;52.344;14.518;2023-08-07T09:40:31;19.30;99.90
13694;DHT22;6919;52.344;14.518;2023-08-07T09:43:00;19.80;99.90
13694;DHT22;6919;52.344;14.518;2023-08-07T09:45:30;20.00;99.90
13694;DHT22;6919;52.344;14.518;2023-08-07T09:47:59;19.90;99.90
13694;DHT22;6919;52.344;14.518;2023-08-07T09:50:30;19.80;99.90
13694;DHT22;6919;52.344;14.518;2023-08-07T09:53:02;20.10;99.90
13694;DHT22;6919;52.344;14.518;2023-08-07T09:55:30;19.70;99.90
13694;DHT22;6919;52.344;14.518;2023-08-07T09:58:01;19.50;99.90
13694;DHT22;6919;52.344;14.518;2023-08-07T10:00:33;19.30;99.90
13694;DHT22;6919;52.344;14.518;2023-08-07T10:03:03;19.00;99.90
13694;DHT22;6919;52.344;14.518;2023-08-07T10:05:34;19.00;99.90
13694;DHT22;6919;52.344;14.518;2023-08-07T10:08:03;18.90;99.90
13694;DHT22;6919;52.344;14.518;2023-08-07T10:10:32;18.80;99.90
13694;DHT22;6919;52.344;14.518;2023-08-07T10:13:01;18.50;99.90
13694;DHT22;6919;52.344;14.518;2023-08-07T10:15:31;18.60;99.90
13694;DHT22;6919;52.344;14.518;2023-08-07T10:18:01;18.50;99.90
13694;DHT22;6919;52.344;14.518;2023-08-07T10:20:34;18.80;99.90
13694;DHT22;6919;52.344;14.518;2023-08-07T10:23:06;18.80;99.90
13694;DHT22;6919;52.344;14.518;2023-08-07T10:25:39;18.80;99.90
13694;DHT22;6919;52.344;14.518;2023-08-07T10:28:15;18.60;99.90
13694;DHT22;6919;52.344;14.518;2023-08-07T10:30:46;18.30;99.90
13694;DHT22;6919;52.344;14.518;2023-08-07T10:33:15;18.30;99.90
13694;DHT22;6919;52.344;14.518;2023-08-07T10:35:48;18.00;99.90
13694;DHT22;6919;52.344;14.518;2023-08-07T10:38:19;17.80;99.90
13694;DHT22;6919;52.344;14.518;2023-08-07T10:41:00;17.80;99.90
13694;DHT22;6919;52.344;14.518;2023-08-07T10:43:30;17.50;99.90
13694;DHT22;6919;52.344;14.518;2023-08-07T10:46:05;17.60;99.90
13694;DHT22;6919;52.344;14.518;2023-08-07T10:48:41;18.00;99.90
13694;DHT22;6919;52.344;14.518;2023-08-07T10:51:13;18.10;99.90
13694;DHT22;6919;52.344;14.518;2023-08-07T10:53:44;18.30;99.90
13694;DHT22;6919;52.344;14.518;2023-08-07T10:56:16;18.50;99.90
13694;DHT22;6919;52.344;14.518;2023-08-07T10:58:50;18.70;99.90
13694;DHT22;6919;52.344;14.518;2023-08-07T11:01:21;18.60;99.90
13694;DHT22;6919;52.344;14.518;2023-08-07T11:03:57;19.10;99.90
13694;DHT22;6919;52.344;14.518;2023-08-07T11:06:30;19.20;99.90
13694;DHT22;6919;52.344;14.518;2023-08-07T11:08:59;19.50;99.90
13694;DHT22;6919;52.344;14.518;2023-08-07T11:11:33;19.50;99.90
13694;DHT22;6919;52.344;14.518;2023-08-07T11:14:06;19.80;99.90
13694;DHT22;6919;52.344;14.518;2023-08-07T11:16:35;20.00;99.90
13694;DHT22;6919;52.344;14.518;2023-08-07T11:19:04;20.10;99.90
13694;DHT22;6919;52.344;14.518;2023-08-07T11:21:35;20.20;99.90
13694;DHT22;6919;52.344;14.518;2023-08-07T11:24:03;20.40;99.90
13694;DHT22;6919;52.344;14.518;2023-08-07T11:26:32;20.00;99.90
13694;DHT22;6919;52.344;14.518;2023-08-07T11:29:00;20.00;99.90
13694;DHT22;6919;52.344;14.518;2023-08-07T11:31:29;19.80;99.90
13694;DHT22;6919;52.344;14.518;2023-08-07T11:33:58;19.80;99.90
13694;DHT22;6919;52.344;14.518;2023-08-07T11:36:26;19.80;99.90
13694;DHT22;6919;52.344;14.518;2023-08-07T11:38:56;19.80;99.90
13694;DHT22;6919;52.344;14.518;2023-08-07T11:41:24;20.00;99.90
13694;DHT22;6919;52.344;14.518;2023-08-07T11:43:52;20.10;99.90
13694;DHT22;6919;52.344;14.518;2023-08-07T11:46:24;19.80;99.90
13694;DHT22;6919;52.344;14.518;2023-08-07T11:48:52;19.70;99.90
13694;DHT22;6919;52.344;14.518;2023-08-07T11:51:22;19.80;99.90
13694;DHT22;6919;52.344;14.518;2023-08-07T11:53:51;20.00;99.90
13694;DHT22;6919;52.344;14.518;2023-08-07T11:56:26;19.90;99.90
13694;DHT22;6919;52.344;14.518;2023-08-07T11:58:57;19.90;99.90
13694;DHT22;6919;52.344;14.518;2023-08-07T12:01:27;19.60;99.90
13694;DHT22;6919;52.344;14.518;2023-08-07T12:03:57;19.40;99.90
13694;DHT22;6919;52.344;14.518;2023-08-07T12:06:37;19.40;99.90
13694;DHT22;6919;52.344;14.518;2023-08-07T12:09:07;19.70;99.90
13694;DHT22;6919;52.344;14.518;2023-08-07T12:11:40;19.80;99.90
13694;DHT22;6919;52.344;14.518;2023-08-07T12:14:13;19.70;99.90
13694;DHT22;6919;52.344;14.518;2023-08-07T12:16:44;19.60;99.90
13694;DHT22;6919;52.344;14.518;2023-08-07T12:19:13;19.30;99.90
13694;DHT22;6919;52.344;14.518;2023-08-07T12:21:41;19.30;99.90
13694;DHT22;6919;52.344;14.518;2023-08-07T12:24:11;19.50;99.90
13694;DHT22;6919;52.344;14.518;2023-08-07T12:26:42;19.60;99.90
13694;DHT22;6919;52.344;14.518;2023-08-07T12:29:10;19.80;99.90
13694;DHT22;6919;52.344;14.518;2023-08-07T12:31:38;20.00;99.90
13694;DHT22;6919;52.344;14.518;2023-08-07T12:34:07;19.90;99.90
13694;DHT22;6919;52.344;14.518;2023-08-07T12:36:40;20.10;99.90
13694;DHT22;6919;52.344;14.518;2023-08-07T12:39:08;20.50;99.90
13694;DHT22;6919;52.344;14.518;2023-08-07T12:41:36;20.30;99.90
13694;DHT22;6919;52.344;14.518;2023-08-07T12:44:09;19.80;99.90
13694;DHT22;6919;52.344;14.518;2023-08-07T12:46:39;19.70;99.90
13694;DHT22;6919;52.344;14.518;2023-08-07T12:49:09;19.50;99.90
13694;DHT22;6919;52.344;14.518;2023-08-07T12:51:37;19.30;99.90
13694;DHT22;6919;52.344;14.518;2023-08-07T12:54:05;19.20;99.90
13694;DHT22;6919;52.344;14.518;2023-08-07T12:56:34;19.20;99.90
13694;DHT22;6919;52.344;14.518;2023-08-07T12:59:02;19.30;99.90
13694;DHT22;6919;52.344;14.518;2023-08-07T13:01:32;19.50;99.90
13694;DHT22;6919;52.344;14.518;2023-08-07T13:04:00;19.60;99.90
13694;DHT22;6919;52.344;14.518;2023-08-07T13:06:31;19.80;99.90
13694;DHT22;6919;52.344;14.518;2023-08-07T13:08:59;20.10;99.90
13694;DHT22;6919;52.344;14.518;2023-08-07T13:11:28;20.10;99.90
13694;DHT22;6919;52.344;14.518;2023-08-07T13:13:57;20.10;99.90
13694;DHT22;6919;52.344;14.518;2023-08-07T13:16:25;20.40;99.90
13694;DHT22;6919;52.344;14.518;2023-08-07T13:18:54;20.50;99.90
13694;DHT22;6919;52.344;14.518;2023-08-07T13:21:23;20.70;99.90
13694;DHT22;6919;52.344;14.518;2023-08-07T13:23:52;20.70;99.90
13694;DHT22;6919;52.344;14.518;2023-08-07T13:26:20;20.70;99.90
13694;DHT22;6919;52.344;14.518;2023-08-07T13:28:48;20.40;99.90
13694;DHT22;6919;52.344;14.518;2023-08-07T13:31:16;20.40;99.90
13694;DHT22;6919;52.344;14.518;2023-08-07T13:33:45;20.30;99.90
13694;DHT22;6919;52.344;14.518;2023-08-07T13:36:14;20.40;99.90
13694;DHT22;6919;52.344;14.518;2023-08-07T13:38:43;20.60;99.90
13694;DHT22;6919;52.344;14.518;2023-08-07T13:41:13;20.70;99.90
13694;DHT22;6919;52.344;14.518;2023-08-07T13:43:46;20.70;99.90
13694;DHT22;6919;52.344;14.518;2023-08-07T13:46:14;20.90;99.90
13694;DHT22;6919;52.344;14.518;2023-08-07T13:48:42;21.10;99.90
13694;DHT22;6919;52.344;14.518;2023-08-07T13:51:11;21.30;99.90
13694;DHT22;6919;52.344;14.518;2023-08-07T13:53:41;21.50;99.90
13694;DHT22;6919;52.344;14.518;2023-08-07T13:56:09;22.00;99.90
13694;DHT22;6919;52.344;14.518;2023-08-07T13:58:39;21.80;96.10
13694;DHT22;6919;52.344;14.518;2023-08-07T14:01:07;21.90;99.50
13694;DHT22;6919;52.344;14.518;2023-08-07T14:03:36;21.70;99.90
13694;DHT22;6919;52.344;14.518;2023-08-07T14:06:04;21.20;99.90
13694;DHT22;6919;52.344;14.518;2023-08-07T14:08:35;21.00;99.90
13694;DHT22;6919;52.344;14.518;2023-08-07T14:11:04;20.40;99.90
13694;DHT22;6919;52.344;14.518;2023-08-07T14:13:33;19.40;99.90
13694;DHT22;6919;52.344;14.518;2023-08-07T14:16:01;17.40;99.90
13694;DHT22;6919;52.344;14.518;2023-08-07T14:18:29;16.00;99.90
13694;DHT22;6919;52.344;14.518;2023-08-07T14:20:58;15.70;99.90
13694;DHT22;6919;52.344;14.518;2023-08-07T14:23:29;15.70;99.90
13694;DHT22;6919;52.344;14.518;2023-08-07T14:26:00;15.80;99.90
13694;DHT22;6919;52.344;14.518;2023-08-07T14:28:30;16.20;99.90
13694;DHT22;6919;52.344;14.518;2023-08-07T14:30:59;16.70;99.90
13694;DHT22;6919;52.344;14.518;2023-08-07T14:33:28;16.90;99.90
13694;DHT22;6919;52.344;14.518;2023-08-07T14:35:56;17.00;99.90
13694;DHT22;6919;52.344;14.518;2023-08-07T14:38:24;17.20;99.90
13694;DHT22;6919;52.344;14.518;2023-08-07T14:40:53;17.80;99.90
13694;DHT22;6919;52.344;14.518;2023-08-07T14:43:21;17.90;99.90
13694;DHT22;6919;52.344;14.518;2023-08-07T14:45:51;18.20;99.90
13694;DHT22;6919;52.344;14.518;2023-08-07T14:48:21;18.70;99.90
13694;DHT22;6919;52.344;14.518;2023-08-07T14:50:49;19.00;99.90
13694;DHT22;6919;52.344;14.518;2023-08-07T14:53:18;19.50;99.90
13694;DHT22;6919;52.344;14.518;2023-08-07T14:55:46;19.90;99.90
13694;DHT22;6919;52.344;14.518;2023-08-07T14:58:14;19.70;99.90
13694;DHT22;6919;52.344;14.518;2023-08-07T15:00:42;19.70;99.90
13694;DHT22;6919;52.344;14.518;2023-08-07T15:03:12;19.60;99.90
13694;DHT22;6919;52.344;14.518;2023-08-07T15:05:40;19.80;99.90
13694;DHT22;6919;52.344;14.518;2023-08-07T15:08:09;19.90;99.90
13694;DHT22;6919;52.344;14.518;2023-08-07T15:10:37;20.00;99.90
13694;DHT22;6919;52.344;14.518;2023-08-07T15:13:07;19.80;99.90
13694;DHT22;6919;52.344;14.518;2023-08-07T15:15:35;19.70;99.90
13694;DHT22;6919;52.344;14.518;2023-08-07T15:18:03;19.40;99.90
13694;DHT22;6919;52.344;14.518;2023-08-07T15:20:35;19.40;99.90
13694;DHT22;6919;52.344;14.518;2023-08-07T15:23:03;19.40;99.90
13694;DHT22;6919;52.344;14.518;2023-08-07T15:25:32;19.30;99.90
13694;DHT22;6919;52.344;14.518;2023-08-07T15:28:02;19.80;99.90
13694;DHT22;6919;52.344;14.518;2023-08-07T15:30:32;19.80;99.90
13694;DHT22;6919;52.344;14.518;2023-08-07T15:33:00;20.20;99.90
13694;DHT22;6919;52.344;14.518;2023-08-07T15:35:30;20.30;99.90
13694;DHT22;6919;52.344;14.518;2023-08-07T15:38:00;20.30;99.90
13694;DHT22;6919;52.344;14.518;2023-08-07T15:40:28;20.50;99.90
13694;DHT22;6919;52.344;14.518;2023-08-07T15:42:56;20.70;99.90
13694;DHT22;6919;52.344;14.518;2023-08-07T15:45:24;20.40;99.90